Weather observations for the past three days for
Beaufort Smith Field
Metric (Imperial)
Date Time (edt) Wind (kph) Vis. (km) Weather Sky Cond. Temperature (ºC) Relative Humidity Wind Chill (°C) Heat Index (°C) Pressure Precipitation (cm)
Air Dwpt 6 hour altimeter (cm) sea level (mb) 1 hr 3 hr 6 hr
Max. Min.
06 03:58 NW 11 16.09 Fair CLR 23.3 21.7 91% 75.77 1010.1
06 02:58 NW 15 16.09 A Few Clouds FEW020 23.9 21.7 88% 24 75.77 1010.0
06 01:58 NW 24 16.09 Mostly Cloudy BKN025 24.4 22.2 24.4 23.3 88% 25 75.77 1010.2 0.03
06 00:58 NW 15 16.09 Mostly Cloudy BKN048 BKN120 23.9 21.7 88% 24 75.84 1011.1
05 23:58 NW 17 16.09 Fair CLR 23.9 22.2 90% 23 75.82 1010.8
05 22:58 NW 15 16.09 Mostly Cloudy BKN085 24.4 22.8 91% 24 75.84 1011.3 0.03
05 21:58 NE 7 16.09 Fair CLR 23.3 21.7 91% 75.84 1011.0
05 20:58 E 9 16.09 Light Rain SCT110 23.3 22.2 94% 75.77 1010.0 0.03
05 19:58 S 11 16.09 Light Rain FEW043 FEW110 22.8 21.7 31.1 22.2 94% 75.72 1009.5 0.03 1.65
05 18:58 SW 13 16.09 Fair CLR 24.4 22.2 88% 25 75.79 1010.6
05 17:58 SW 19 14.48 Thunderstorm Light Rain FEW060 BKN120 23.3 21.1 88% 75.72 1009.5 0.51
05 16:58 W 13 G 48 2.01 Thunderstorm Heavy Rain Fog/Mist FEW014 BKN025 OVC033 23.3 21.1 88% 75.82 1010.7 1.12 1.12
05 15:58 S 19 16.09 Thunderstorm in Vicinity CLR 31.1 26.7 77% 40 75.64 1008.5
05 13:58 SW 20 16.09 Fair CLR 31.1 26.7 31.7 28.3 77% 40 75.77 1010.3
05 12:58 S 17 16.09 Fair CLR 31.7 26.1 72% 40 75.82 1010.9
05 11:58 SW 19 16.09 A Few Clouds FEW032 31.1 26.1 75% 39 75.9 1011.8
05 10:58 SW 17 16.09 Fair CLR 31.1 25.6 73% 39 75.9 1011.7
05 09:58 W 17 16.09 Fair CLR 30 25.6 77% 37 75.9 1011.8
05 08:58 W 17 16.09 Fair CLR 29.4 24.4 75% 35 75.92 1012.0
05 07:58 W 13 16.09 Fair CLR 28.3 24.4 28.3 26.7 79% 33 75.9 1011.9
05 06:58 W 15 16.09 Fair CLR 27.2 24.4 85% 31 75.87 1011.6
05 05:58 W 13 16.09 Fair CLR 26.7 23.9 85% 29 75.84 1011.2
05 04:58 SW 17 16.09 Fair CLR 26.7 23.9 85% 29 75.87 1011.5
05 03:58 W 15 16.09 Fair CLR 27.2 23.9 82% 30 75.87 1011.7
05 02:58 W 15 16.09 Fair CLR 27.2 23.3 79% 30 75.9 1011.8
05 01:58 SW 9 16.09 Fair CLR 27.2 22.8 28.3 25.6 77% 30 75.92 1012.2
05 00:58 S 7 16.09 Fair CLR 26.1 22.2 79% 28 75.92 1012.2
04 23:58 Calm 16.09 Fair CLR 25.6 21.7 79% 27 76.1 1014.6
04 22:58 NW 24 G 46 16.09 Partly Cloudy FEW017 SCT050 28.3 25 82% 33 76.17 1015.6
04 21:58 W 15 16.09 Fair CLR 28.3 25.6 85% 34 76.17 1015.4
04 20:58 SW 17 16.09 Fair CLR 27.8 25 85% 32 76.1 1014.4
04 19:58 SW 24 G 33 16.09 Fair CLR 28.3 25.6 31.1 28.3 85% 34 76.05 1013.9
04 18:58 SW 20 16.09 Fair CLR 28.9 25 80% 34 76.02 1013.6
04 17:58 SW 30 16.09 Fair CLR 30 25 75% 36 76.02 1013.6
04 16:58 SW 26 16.09 Fair CLR 30 25 75% 36 76.02 1013.6
04 15:58 SW 28 16.09 Fair CLR 30.6 25 72% 37 76.1 1014.4
04 14:58 SW 26 16.09 Fair CLR 30.6 25.6 75% 38 76.15 1015.4
04 13:58 SW 22 16.09 Fair CLR 30.6 25 31.1 27.8 72% 37 76.23 1016.1
04 12:58 SW 24 16.09 Fair CLR 30.6 25.6 75% 38 76.25 1016.4
04 11:58 SW 28 16.09 A Few Clouds FEW016 30.6 25.6 75% 38 76.28 1016.9
04 10:58 W 19 16.09 A Few Clouds FEW014 FEW022 30 25.6 77% 37 76.28 1017.0
04 09:58 SW 17 16.09 Mostly Cloudy BKN015 BKN023 28.9 25.6 82% 35 76.28 1016.8
04 08:58 SW 13 16.09 Mostly Cloudy BKN013 28.3 25.6 85% 34 76.25 1016.7
04 07:58 W 15 16.09 A Few Clouds FEW012 27.8 25 28.3 27.2 85% 32 76.25 1016.5
04 06:58 SW 11 16.09 Fair CLR 27.2 25 88% 31 76.23 1016.4
04 05:58 W 7 16.09 Fair CLR 27.2 25 88% 31 76.2 1016.0
04 04:58 SW 15 16.09 A Few Clouds FEW015 27.2 25 88% 31 76.23 1016.1
04 03:58 SW 15 16.09 Fair CLR 27.2 25 88% 31 76.2 1016.1
04 02:58 SW 17 16.09 Fair CLR 27.2 25 88% 31 76.23 1016.2
04 01:58 SW 13 16.09 Partly Cloudy SCT013 27.8 25.6 28.3 27.8 88% 33 76.25 1016.6
04 00:58 SW 15 16.09 Fair CLR 27.8 25 85% 32 76.3 1017.2
03 23:58 SW 15 16.09 Fair CLR 27.8 25.6 88% 33 76.33 1017.6
03 22:58 SW 20 16.09 Fair CLR 27.8 25 85% 32 76.3 1017.4
03 21:58 SW 15 16.09 A Few Clouds FEW021 28.3 25 82% 33 76.33 1017.6
03 20:58 SW 17 16.09 A Few Clouds FEW021 28.3 25 82% 33 76.28 1017.0
03 19:58 SW 22 16.09 Partly Cloudy SCT018 28.3 25 31.1 28.3 82% 33 76.23 1016.2
03 18:58 SW 19 16.09 Fair CLR 28.9 25 80% 34 76.23 1016.2
03 17:58 SW 22 16.09 Fair CLR 29.4 25 77% 35 76.25 1016.7
03 16:58 S 20 16.09 Fair CLR 30 25 75% 36 76.25 1016.4
03 15:58 S 19 16.09 Fair CLR 30.6 25 72% 37 76.28 1016.8
03 14:58 SW 20 16.09 Fair CLR 30 24.4 72% 36 76.33 1017.5
03 13:58 SW 17 16.09 A Few Clouds FEW017 30.6 25.6 31.1 27.8 75% 38 76.35 1018.1
03 12:58 SW 15 16.09 Fair CLR 30 25 75% 36 76.38 1018.2
03 11:58 S 15 16.09 Fair CLR 30.6 24.4 70% 36 76.4 1018.6
03 10:58 S 13 16.09 Fair CLR 30 24.4 72% 36 76.4 1018.7
03 09:58 SW 13 16.09 Partly Cloudy SCT019 30 25 75% 36 76.38 1018.4
03 08:58 SW 11 16.09 Fair CLR 28.9 24.4 77% 34 76.4 1018.5
03 07:58 SW 7 16.09 Fair CLR 27.8 23.9 27.8 26.1 79% 32 76.38 1018.2
03 06:58 Calm 16.09 Mostly Cloudy BKN050 26.7 25 90% 30 76.35 1017.9
03 05:58 SW 6 16.09 Fair CLR 26.7 25 90% 30 76.3 1017.4
03 04:58 SW 6 16.09 A Few Clouds FEW016 26.7 24.4 87% 30 76.3 1017.1
Date Time (edt) Wind (kph) Vis. (km) Weather Sky Cond. Air Dwpt Max. Min. Relative Humidity Wind Chill (°C) Heat Index (°C) altimeter (cm) sea level (mb) 1 hr 3 hr 6 hr
6 hour
Temperature (ºC) Pressure Precipitation (cm)